createdAt,value
2024-01-11T00:01:13.034Z,101716.09
2024-01-11T00:03:41.028Z,101713.10
2024-01-11T00:06:09.023Z,101707.42
2024-01-11T00:08:37.115Z,101708.02
2024-01-11T00:11:05.457Z,101707.69
2024-01-11T00:13:33.745Z,101694.98
2024-01-11T00:16:01.632Z,101687.02
2024-01-11T00:18:29.776Z,101689.98
2024-01-11T00:20:57.912Z,101686.94
2024-01-11T00:23:25.750Z,101688.88
2024-01-11T00:25:53.689Z,101678.77
2024-01-11T00:28:21.641Z,101668.90
2024-01-11T00:30:49.679Z,101667.12
2024-01-11T00:33:17.698Z,101667.67
2024-01-11T00:35:45.920Z,101670.98
2024-01-11T00:38:13.885Z,101673.77
2024-01-11T00:40:42.018Z,101668.89
2024-01-11T00:43:10.006Z,101659.30
2024-01-11T00:45:37.934Z,101643.99
2024-01-11T00:48:06.206Z,101651.92
2024-01-11T00:50:34.291Z,101653.63
2024-01-11T00:53:02.738Z,101654.73
2024-01-11T00:55:30.957Z,101655.83
2024-01-11T00:57:59.044Z,101654.70
2024-01-11T01:00:27.060Z,101645.84
2024-01-11T01:02:55.207Z,101648.23
2024-01-11T01:05:23.169Z,101649.19
2024-01-11T01:07:51.226Z,101650.71
2024-01-11T01:13:44.984Z,101644.09
2024-01-11T01:16:13.034Z,101645.06
2024-01-11T01:18:41.435Z,101636.66
2024-01-11T01:21:09.745Z,101635.00
2024-01-11T01:23:37.757Z,101630.79
2024-01-11T01:26:07.564Z,101631.91
2024-01-11T01:28:35.869Z,101630.08
2024-01-11T01:31:03.929Z,101628.14
2024-01-11T01:33:31.975Z,101633.52
2024-01-11T01:35:59.918Z,101635.30
2024-01-11T01:38:27.849Z,101640.73
2024-01-11T01:40:56.023Z,101636.56
2024-01-11T01:43:24.162Z,101626.52
2024-01-11T01:45:52.989Z,101606.32
2024-01-11T01:48:21.748Z,101617.14
2024-01-11T01:50:53.229Z,101615.54
2024-01-11T01:53:23.522Z,101609.70
2024-01-11T01:55:53.783Z,101619.88
2024-01-11T01:58:22.718Z,101627.02
2024-01-11T02:00:54.133Z,101643.38
2024-01-11T02:03:22.394Z,101650.05
2024-01-11T02:05:50.490Z,101655.34
2024-01-11T02:08:21.837Z,101652.59
2024-01-11T02:10:51.011Z,101652.39
2024-01-11T02:13:20.381Z,101654.98
2024-01-11T02:15:48.383Z,101630.38
2024-01-11T02:18:16.459Z,101643.00
2024-01-11T02:20:45.183Z,101639.59
2024-01-11T02:23:18.446Z,101629.15
2024-01-11T02:25:46.636Z,101629.21
2024-01-11T02:28:15.899Z,101634.83
2024-01-11T02:30:44.239Z,101634.38
2024-01-11T02:33:17.173Z,101626.25
2024-01-11T02:35:47.920Z,101622.23
2024-01-11T02:38:17.016Z,101615.64
2024-01-11T02:40:45.747Z,101609.63
2024-01-11T02:43:14.015Z,101611.55
2024-01-11T02:45:41.954Z,101592.91
2024-01-11T02:48:10.010Z,101587.41
2024-01-11T02:50:38.186Z,101579.79
2024-01-11T02:53:06.219Z,101573.75
2024-01-11T02:55:34.189Z,101569.58
2024-01-11T02:58:02.038Z,101563.39
2024-01-11T03:00:29.948Z,101561.96
2024-01-11T03:02:57.866Z,101563.27
2024-01-11T03:05:25.969Z,101561.41
2024-01-11T03:07:53.962Z,101567.79
2024-01-11T03:10:22.126Z,101562.91
2024-01-11T03:12:50.614Z,101554.88
2024-01-11T03:15:18.569Z,101538.41
2024-01-11T03:17:46.833Z,101550.71
2024-01-11T03:20:15.078Z,101556.68
2024-01-11T03:22:49.049Z,101549.70
2024-01-11T03:25:17.168Z,101546.94
2024-01-11T03:27:45.486Z,101564.02
2024-01-11T03:30:13.760Z,101562.30
2024-01-11T03:32:42.046Z,101567.73
2024-01-11T03:35:10.334Z,101578.59
2024-01-11T03:37:38.477Z,101574.60
2024-01-11T03:40:07.067Z,101574.17
2024-01-11T03:42:35.111Z,101557.91
2024-01-11T03:45:03.120Z,101554.02
2024-01-11T03:47:31.406Z,101549.73
2024-01-11T03:49:59.520Z,101563.09
2024-01-11T03:52:27.627Z,101573.78
2024-01-11T03:54:55.592Z,101575.32
2024-01-11T03:57:23.556Z,101582.91
2024-01-11T03:59:51.776Z,101586.83
2024-01-11T04:02:19.833Z,101590.97
2024-01-11T04:04:47.870Z,101584.28
2024-01-11T04:07:16.177Z,101573.89
2024-01-11T04:09:44.215Z,101567.10
2024-01-11T04:12:12.360Z,101563.42
2024-01-11T04:14:43.348Z,101569.83
2024-01-11T04:17:11.347Z,101571.73
2024-01-11T04:19:40.736Z,101552.88
2024-01-11T04:22:09.045Z,101554.80
2024-01-11T04:24:36.984Z,101556.61
2024-01-11T04:27:05.090Z,101556.65
2024-01-11T04:29:33.323Z,101546.73
2024-01-11T04:32:03.015Z,101552.66
2024-01-11T04:34:32.471Z,101557.19
2024-01-11T04:37:00.888Z,101561.55
2024-01-11T04:39:28.830Z,101571.30
2024-01-11T04:41:56.752Z,101568.48
2024-01-11T04:44:26.641Z,101559.35
2024-01-11T04:46:55.923Z,101544.48
2024-01-11T04:49:24.130Z,101542.80
2024-01-11T04:51:52.236Z,101546.17
2024-01-11T04:54:20.162Z,101544.39
2024-01-11T04:56:48.337Z,101547.02
2024-01-11T04:59:16.336Z,101547.96
2024-01-11T05:01:44.260Z,101535.88
2024-01-11T05:04:12.265Z,101528.52
2024-01-11T05:06:40.374Z,101518.75
2024-01-11T05:09:08.344Z,101511.46
2024-01-11T05:11:36.369Z,101499.05
2024-01-11T05:14:04.390Z,101488.05
2024-01-11T05:16:32.595Z,101480.94
2024-01-11T05:19:00.702Z,101481.34
2024-01-11T05:21:29.056Z,101481.46
2024-01-11T05:23:57.050Z,101493.92
2024-01-11T05:26:25.169Z,101495.66
2024-01-11T05:28:53.144Z,101490.45
2024-01-11T05:31:21.219Z,101487.67
2024-01-11T05:33:49.671Z,101475.14
2024-01-11T05:36:17.888Z,101472.98
2024-01-11T05:38:46.760Z,101453.85
2024-01-11T05:41:15.413Z,101449.75
2024-01-11T05:43:44.478Z,101434.92
2024-01-11T05:46:12.549Z,101445.36
2024-01-11T05:48:40.653Z,101441.27
2024-01-11T05:51:10.445Z,101439.22
2024-01-11T05:53:38.530Z,101456.39
2024-01-11T05:56:11.168Z,101467.13
2024-01-11T05:58:41.009Z,101473.59
2024-01-11T06:01:09.330Z,101472.77
2024-01-11T06:03:38.720Z,101462.04
2024-01-11T06:06:07.151Z,101455.27
2024-01-11T06:08:35.234Z,101465.61
2024-01-11T06:11:03.276Z,101466.73
2024-01-11T06:13:31.236Z,101445.16
2024-01-11T06:15:59.577Z,101434.25
2024-01-11T06:18:27.782Z,101422.92
2024-01-11T06:20:55.832Z,101400.96
2024-01-11T06:23:25.874Z,101395.48
2024-01-11T06:25:53.833Z,101388.95
2024-01-11T06:28:21.785Z,101407.09
2024-01-11T06:30:50.009Z,101406.52
2024-01-11T06:33:18.369Z,101401.79
2024-01-11T06:35:46.738Z,101413.87
2024-01-11T06:38:14.840Z,101422.48
2024-01-11T06:40:42.907Z,101429.72
2024-01-11T06:43:11.034Z,101433.48
2024-01-11T06:45:38.936Z,101437.89
2024-01-11T06:48:07.760Z,101443.23
2024-01-11T06:50:35.901Z,101437.54
2024-01-11T06:53:04.160Z,101449.41
2024-01-11T06:55:32.238Z,101439.70
2024-01-11T06:58:00.495Z,101434.64
2024-01-11T07:00:29.270Z,101422.77
2024-01-11T07:02:57.480Z,101425.34
2024-01-11T07:05:26.290Z,101421.33
2024-01-11T07:07:54.838Z,101410.44
2024-01-11T07:10:22.802Z,101400.27
2024-01-11T07:12:50.676Z,101389.51
2024-01-11T07:15:18.769Z,101389.39
2024-01-11T07:17:46.884Z,101378.27
2024-01-11T07:20:16.758Z,101373.90
2024-01-11T07:22:44.857Z,101383.81
2024-01-11T07:25:12.903Z,101396.99
2024-01-11T07:27:40.931Z,101382.30
2024-01-11T07:30:09.947Z,101368.96
2024-01-11T07:32:38.106Z,101351.86
2024-01-11T07:35:12.205Z,101350.55
2024-01-11T07:37:42.275Z,101335.52
2024-01-11T07:40:12.262Z,101333.43
2024-01-11T07:42:41.671Z,101338.33
2024-01-11T07:45:13.754Z,101355.48
2024-01-11T07:47:41.864Z,101358.81
2024-01-11T07:50:16.595Z,101356.38
2024-01-11T07:52:45.096Z,101348.93
2024-01-11T07:55:14.260Z,101362.77
2024-01-11T07:57:42.585Z,101361.55
2024-01-11T08:00:11.099Z,101357.64
2024-01-11T08:02:39.264Z,101348.37
2024-01-11T08:05:08.272Z,101353.13
2024-01-11T08:07:37.064Z,101355.20
2024-01-11T08:10:05.655Z,101353.97
2024-01-11T08:12:33.582Z,101356.95
2024-01-11T08:15:01.721Z,101345.42
2024-01-11T08:17:29.872Z,101336.45
2024-01-11T08:19:58.244Z,101340.07
2024-01-11T08:22:27.768Z,101343.52
2024-01-11T08:24:57.259Z,101354.75
2024-01-11T08:27:25.196Z,101358.39
2024-01-11T08:29:53.135Z,101353.84
2024-01-11T08:32:28.755Z,101350.40
2024-01-11T08:35:00.623Z,101345.01
2024-01-11T08:37:28.833Z,101344.58
2024-01-11T08:39:56.746Z,101351.06
2024-01-11T08:42:24.701Z,101353.59
2024-01-11T08:44:53.449Z,101341.23
2024-01-11T08:47:21.496Z,101330.79
2024-01-11T08:49:50.082Z,101341.39
2024-01-11T08:52:18.076Z,101341.31
2024-01-11T08:54:46.021Z,101334.13
2024-01-11T08:57:14.321Z,101349.54
2024-01-11T08:59:42.765Z,101350.46
2024-01-11T09:02:15.828Z,101353.30
2024-01-11T09:04:48.837Z,101349.67
2024-01-11T09:07:17.052Z,101361.10
2024-01-11T09:09:51.356Z,101363.36
2024-01-11T09:12:24.789Z,101359.25
2024-01-11T09:14:53.179Z,101355.35
2024-01-11T09:17:21.217Z,101361.13
2024-01-11T09:19:49.349Z,101356.67
2024-01-11T09:22:17.813Z,101356.45
2024-01-11T09:24:45.704Z,101357.05
2024-01-11T09:27:13.723Z,101353.14
2024-01-11T09:29:45.942Z,101344.54
2024-01-11T09:32:14.829Z,101355.15
2024-01-11T09:34:43.472Z,101361.02
2024-01-11T09:37:11.467Z,101365.91
2024-01-11T09:39:39.513Z,101366.63
2024-01-11T09:42:11.235Z,101363.90
2024-01-11T09:44:40.824Z,101361.87
2024-01-11T09:47:13.936Z,101358.09
2024-01-11T09:49:45.958Z,101353.98
2024-01-11T09:52:16.779Z,101342.58
2024-01-11T09:54:44.857Z,101341.61
2024-01-11T09:57:12.797Z,101342.34
2024-01-11T09:59:42.630Z,101349.98
2024-01-11T10:02:12.633Z,101358.52
2024-01-11T10:04:43.438Z,101344.05
2024-01-11T10:07:12.010Z,101329.73
2024-01-11T10:09:40.003Z,101329.77
2024-01-11T10:12:09.264Z,101334.79
2024-01-11T10:14:37.234Z,101336.70
2024-01-11T10:17:06.379Z,101322.41
2024-01-11T10:19:34.807Z,101316.57
2024-01-11T10:22:04.155Z,101315.35
2024-01-11T10:24:32.372Z,101317.25
2024-01-11T10:27:05.085Z,101314.67
2024-01-11T10:29:34.363Z,101304.10
2024-01-11T10:32:02.521Z,101292.17
2024-01-11T10:34:30.943Z,101294.08
2024-01-11T10:36:59.024Z,101285.77
2024-01-11T10:39:28.612Z,101281.98
2024-01-11T10:42:07.632Z,101284.90
2024-01-11T10:44:37.507Z,101274.20
2024-01-11T10:47:08.914Z,101272.99
2024-01-11T10:49:41.833Z,101266.08
2024-01-11T10:52:13.747Z,101271.23
2024-01-11T10:54:43.481Z,101271.23
2024-01-11T10:57:14.016Z,101270.36
2024-01-11T10:59:44.500Z,101245.45
2024-01-11T11:02:15.683Z,101255.85
2024-01-11T11:04:44.983Z,101256.73
2024-01-11T11:07:13.723Z,101265.22
2024-01-11T11:09:46.040Z,101266.41
2024-01-11T11:12:15.407Z,101269.02
2024-01-11T11:14:45.539Z,101264.71
2024-01-11T11:17:16.610Z,101273.04
2024-01-11T11:19:44.827Z,101271.14
2024-01-11T11:22:16.555Z,101278.05
2024-01-11T11:24:44.946Z,101277.36
2024-01-11T11:27:18.487Z,101277.73
2024-01-11T11:29:49.387Z,101278.61
2024-01-11T11:32:18.635Z,101284.84
2024-01-11T11:34:48.010Z,101281.20
2024-01-11T11:37:24.739Z,101282.26
2024-01-11T11:39:52.810Z,101275.02
2024-01-11T11:42:23.974Z,101280.56
2024-01-11T11:44:52.505Z,101280.23
2024-01-11T11:47:25.079Z,101283.00
2024-01-11T11:50:11.186Z,101284.04
2024-01-11T11:52:41.258Z,101276.44
2024-01-11T11:55:10.049Z,101267.80
2024-01-11T11:57:38.130Z,101262.81
2024-01-11T12:00:06.923Z,101267.32
2024-01-11T12:02:37.568Z,101250.70
2024-01-11T12:05:06.328Z,101243.98
2024-01-11T12:07:34.645Z,101239.83
2024-01-11T12:10:02.597Z,101235.34
2024-01-11T12:12:31.083Z,101246.59
2024-01-11T12:15:00.446Z,101241.23
2024-01-11T12:17:28.610Z,101232.92
2024-01-11T12:19:57.432Z,101209.58
2024-01-11T12:22:25.577Z,101230.52
2024-01-11T12:24:53.548Z,101235.35
2024-01-11T12:27:22.065Z,101231.55
2024-01-11T12:29:56.109Z,101230.30
2024-01-11T12:32:28.146Z,101229.80
2024-01-11T12:34:57.485Z,101229.27
2024-01-11T12:37:25.553Z,101234.11
2024-01-11T12:39:59.155Z,101239.43
2024-01-11T12:42:30.455Z,101246.69
2024-01-11T12:44:59.734Z,101245.30
2024-01-11T12:47:28.667Z,101241.84
2024-01-11T12:49:56.721Z,101240.95
2024-01-11T12:52:28.880Z,101255.48
2024-01-11T12:54:58.011Z,101261.13
2024-01-11T12:57:26.337Z,101264.02
2024-01-11T12:59:54.754Z,101259.20
2024-01-11T13:02:22.758Z,101254.02
2024-01-11T13:04:51.999Z,101249.85
2024-01-11T13:07:20.366Z,101244.98
2024-01-11T13:09:48.423Z,101243.77
2024-01-11T13:12:16.462Z,101241.02
2024-01-11T13:14:44.602Z,101232.58
2024-01-11T13:17:12.700Z,101229.48
2024-01-11T13:19:41.044Z,101232.27
2024-01-11T13:22:09.071Z,101231.94
2024-01-11T13:24:37.095Z,101236.64
2024-01-11T13:27:05.724Z,101239.59
2024-01-11T13:29:33.666Z,101234.77
2024-01-11T13:32:04.589Z,101236.32
2024-01-11T13:34:33.886Z,101241.34
2024-01-11T13:37:02.257Z,101232.87
2024-01-11T13:39:30.206Z,101231.46
2024-01-11T13:41:58.077Z,101223.80
2024-01-11T13:44:26.142Z,101234.14
2024-01-11T13:46:54.308Z,101229.13
2024-01-11T13:49:24.100Z,101234.13
2024-01-11T13:52:00.306Z,101234.62
2024-01-11T13:54:29.567Z,101238.24
2024-01-11T13:56:57.740Z,101233.39
2024-01-11T13:59:25.787Z,101237.34
2024-01-11T14:01:53.749Z,101242.98
2024-01-11T14:04:24.681Z,101245.92
2024-01-11T14:06:53.887Z,101250.92
2024-01-11T14:09:23.043Z,101254.70
2024-01-11T14:11:51.324Z,101245.64
2024-01-11T14:14:21.819Z,101261.19
2024-01-11T14:16:50.240Z,101264.43
2024-01-11T14:19:18.661Z,101258.70
2024-01-11T14:21:46.770Z,101266.75
2024-01-11T14:24:14.853Z,101273.27
2024-01-11T14:26:44.741Z,101269.13
2024-01-11T14:29:12.781Z,101262.23
2024-01-11T14:31:40.675Z,101267.77
2024-01-11T14:34:08.975Z,101268.63
2024-01-11T14:36:39.042Z,101270.17
2024-01-11T14:39:07.213Z,101275.85
2024-01-11T14:41:35.204Z,101276.19
2024-01-11T14:44:03.201Z,101272.16
2024-01-11T14:46:31.668Z,101281.30
2024-01-11T14:49:02.036Z,101284.16
2024-01-11T14:51:32.278Z,101293.50
2024-01-11T14:54:00.268Z,101301.76
2024-01-11T14:56:28.391Z,101303.16
2024-01-11T14:58:56.453Z,101306.58
2024-01-11T15:01:24.593Z,101305.63
2024-01-11T15:03:52.474Z,101321.46
2024-01-11T15:06:21.074Z,101315.52
2024-01-11T15:08:49.209Z,101312.23
2024-01-11T15:11:17.189Z,101321.23
2024-01-11T15:13:45.611Z,101315.34
2024-01-11T15:16:13.882Z,101310.95
2024-01-11T15:18:41.797Z,101322.11
2024-01-11T15:21:09.768Z,101307.16
2024-01-11T15:23:37.643Z,101315.13
2024-01-11T15:26:05.959Z,101313.40
2024-01-11T15:28:33.958Z,101307.20
2024-01-11T15:31:01.981Z,101315.63
2024-01-11T15:33:30.048Z,101316.84
2024-01-11T15:35:58.497Z,101323.35
2024-01-11T15:38:26.385Z,101324.70
2024-01-11T15:40:54.702Z,101330.05
2024-01-11T15:43:22.629Z,101329.40
2024-01-11T15:45:51.353Z,101327.03
2024-01-11T15:48:19.409Z,101323.71
2024-01-11T15:50:47.527Z,101321.29
2024-01-11T15:53:15.669Z,101330.30
2024-01-11T15:55:43.617Z,101326.60
2024-01-11T15:58:11.516Z,101334.65
2024-01-11T16:00:39.444Z,101342.45
2024-01-11T16:03:08.046Z,101339.00
2024-01-11T16:05:38.800Z,101332.94
2024-01-11T16:08:08.605Z,101342.73
2024-01-11T16:10:36.539Z,101339.61
2024-01-11T16:13:04.689Z,101342.32
2024-01-11T16:15:32.592Z,101344.04
2024-01-11T16:18:00.753Z,101343.68
2024-01-11T16:20:28.937Z,101339.49
2024-01-11T16:22:56.883Z,101345.38
2024-01-11T16:25:25.147Z,101344.17
2024-01-11T16:27:52.986Z,101336.50
2024-01-11T16:30:21.100Z,101343.27
2024-01-11T16:32:49.031Z,101343.71
2024-01-11T16:35:17.042Z,101355.58
2024-01-11T16:37:44.961Z,101360.16
2024-01-11T16:40:14.170Z,101361.38
2024-01-11T16:42:42.430Z,101365.33
2024-01-11T16:45:11.791Z,101367.02
2024-01-11T16:47:40.088Z,101363.36
2024-01-11T16:50:09.404Z,101362.28
2024-01-11T16:52:38.642Z,101367.16
2024-01-11T16:55:06.842Z,101373.59
2024-01-11T16:57:34.834Z,101371.73
2024-01-11T17:00:02.714Z,101381.12
2024-01-11T17:02:31.132Z,101370.36
2024-01-11T17:04:59.260Z,101378.38
2024-01-11T17:07:27.285Z,101365.71
2024-01-11T17:09:55.280Z,101374.22
2024-01-11T17:12:23.348Z,101377.92
2024-01-11T17:14:52.546Z,101378.62
2024-01-11T17:17:23.605Z,101371.23
2024-01-11T17:19:51.789Z,101367.60
2024-01-11T17:22:19.689Z,101366.21
2024-01-11T17:24:47.599Z,101346.25
2024-01-11T17:27:15.966Z,101372.27
2024-01-11T17:29:44.074Z,101377.81
2024-01-11T17:32:12.491Z,101373.02
2024-01-11T17:34:40.455Z,101363.23
2024-01-11T17:37:08.727Z,101355.30
2024-01-11T17:39:36.682Z,101352.02
2024-01-11T17:42:04.798Z,101354.23
2024-01-11T17:44:32.879Z,101350.79
2024-01-11T17:47:00.834Z,101348.38
2024-01-11T17:49:28.912Z,101335.67
2024-01-11T17:51:57.562Z,101335.05
2024-01-11T17:54:25.568Z,101326.67
2024-01-11T17:56:54.402Z,101324.98
2024-01-11T17:59:22.893Z,101319.80
2024-01-11T18:01:50.924Z,101322.57
2024-01-11T18:04:20.014Z,101320.80
2024-01-11T18:06:49.037Z,101326.73
2024-01-11T18:09:17.847Z,101330.34
2024-01-11T18:11:46.470Z,101325.02
2024-01-11T18:14:14.833Z,101326.53
2024-01-11T18:16:43.249Z,101311.15
2024-01-11T18:19:14.987Z,101323.89
2024-01-11T18:21:43.328Z,101330.92
2024-01-11T18:24:11.340Z,101338.11
2024-01-11T18:26:39.348Z,101336.38
2024-01-11T18:29:07.945Z,101337.89
2024-01-11T18:31:36.075Z,101341.16
2024-01-11T18:34:04.363Z,101346.31
2024-01-11T18:36:32.436Z,101349.81
2024-01-11T18:39:00.475Z,101347.39
2024-01-11T18:41:28.644Z,101349.75
2024-01-11T18:43:56.554Z,101350.02
2024-01-11T18:46:24.670Z,101353.40
2024-01-11T18:48:52.709Z,101354.15
2024-01-11T18:51:20.782Z,101355.61
2024-01-11T18:53:49.348Z,101353.94
2024-01-11T18:56:17.897Z,101356.98
2024-01-11T18:58:46.063Z,101363.12
2024-01-11T19:01:14.101Z,101363.14
2024-01-11T19:03:42.234Z,101360.38
2024-01-11T19:06:10.367Z,101360.02
2024-01-11T19:08:38.513Z,101359.54
2024-01-11T19:11:07.626Z,101362.85
2024-01-11T19:13:35.861Z,101361.31
2024-01-11T19:16:04.432Z,101354.77
2024-01-11T19:18:32.783Z,101362.35
2024-01-11T19:21:03.024Z,101352.09
2024-01-11T19:23:31.653Z,101353.15
2024-01-11T19:25:59.553Z,101354.15
2024-01-11T19:28:27.831Z,101355.20
2024-01-11T19:30:57.294Z,101353.95
2024-01-11T19:33:29.571Z,101357.29
2024-01-11T19:35:58.691Z,101363.22
2024-01-11T19:38:26.904Z,101344.89
2024-01-11T19:40:54.789Z,101362.59
2024-01-11T19:43:22.926Z,101362.23
2024-01-11T19:45:51.038Z,101359.98
2024-01-11T19:48:19.278Z,101361.88
2024-01-11T19:50:48.794Z,101358.23
2024-01-11T19:53:17.245Z,101353.56
2024-01-11T19:55:45.372Z,101354.42
2024-01-11T19:58:13.278Z,101356.32
2024-01-11T20:00:42.620Z,101361.37
2024-01-11T20:03:11.216Z,101368.95
2024-01-11T20:05:39.280Z,101376.13
2024-01-11T20:08:07.330Z,101378.55
2024-01-11T20:10:35.637Z,101383.49
2024-01-11T20:13:03.825Z,101383.12
2024-01-11T20:15:32.363Z,101386.00
2024-01-11T20:18:00.828Z,101384.15
2024-01-11T20:20:29.469Z,101390.36
2024-01-11T20:22:57.476Z,101384.66
2024-01-11T20:25:25.383Z,101398.17
2024-01-11T20:27:53.453Z,101400.58
2024-01-11T20:30:21.463Z,101402.80
2024-01-11T20:32:49.650Z,101407.68
2024-01-11T20:35:18.019Z,101410.19
2024-01-11T20:37:45.953Z,101411.02
2024-01-11T20:40:13.925Z,101400.17
2024-01-11T20:42:41.864Z,101399.58
2024-01-11T20:45:10.570Z,101397.17
2024-01-11T20:47:38.586Z,101396.88
2024-01-11T20:50:07.538Z,101398.27
2024-01-11T20:52:35.654Z,101396.02
2024-01-11T20:55:05.315Z,101401.70
2024-01-11T20:57:33.687Z,101398.41
2024-01-11T21:00:02.728Z,101407.02
2024-01-11T21:02:32.189Z,101412.05
2024-01-11T21:05:01.448Z,101411.77
2024-01-11T21:07:29.466Z,101413.89
2024-01-11T21:09:57.519Z,101409.39
2024-01-11T21:12:25.530Z,101410.80
2024-01-11T21:14:53.559Z,101409.36
2024-01-11T21:17:21.646Z,101408.70
2024-01-11T21:19:50.333Z,101414.73
2024-01-11T21:22:19.767Z,101408.89
2024-01-11T21:24:48.708Z,101414.14
2024-01-11T21:27:16.678Z,101414.52
2024-01-11T21:29:44.668Z,101412.28
2024-01-11T21:32:15.179Z,101411.76
2024-01-11T21:34:43.247Z,101408.27
2024-01-11T21:37:11.175Z,101407.39
2024-01-11T21:39:39.342Z,101409.10
2024-01-11T21:42:07.401Z,101408.27
2024-01-11T21:44:35.450Z,101410.55
2024-01-11T21:47:03.529Z,101412.08
2024-01-11T21:49:31.518Z,101416.06
2024-01-11T21:51:59.570Z,101419.86
2024-01-11T21:54:27.746Z,101420.17
2024-01-11T21:56:58.341Z,101428.23
2024-01-11T21:59:26.407Z,101436.15
2024-01-11T22:01:55.850Z,101428.61
2024-01-11T22:04:23.924Z,101441.82
2024-01-11T22:06:52.245Z,101442.39
2024-01-11T22:09:21.009Z,101447.02
2024-01-11T22:11:48.878Z,101441.36
2024-01-11T22:14:17.462Z,101443.63
2024-01-11T22:16:47.988Z,101444.79
2024-01-11T22:19:16.077Z,101448.21
2024-01-11T22:21:44.568Z,101453.33
2024-01-11T22:24:12.902Z,101451.80
2024-01-11T22:26:41.738Z,101445.14
2024-01-11T22:29:10.018Z,101454.29
2024-01-11T22:31:38.106Z,101455.40
2024-01-11T22:34:06.296Z,101461.33
2024-01-11T22:36:34.614Z,101458.37
2024-01-11T22:39:02.593Z,101458.32
2024-01-11T22:41:31.175Z,101452.09
2024-01-11T22:44:00.839Z,101444.55
2024-01-11T22:46:28.809Z,101443.70
2024-01-11T22:48:56.889Z,101443.91
2024-01-11T22:51:25.002Z,101445.17
2024-01-11T22:53:53.150Z,101444.13
2024-01-11T22:56:21.133Z,101442.72
2024-01-11T22:58:49.181Z,101438.38
2024-01-11T23:01:17.180Z,101428.52
2024-01-11T23:03:45.200Z,101430.44
2024-01-11T23:06:13.472Z,101436.30
2024-01-11T23:08:41.446Z,101442.52
2024-01-11T23:11:09.690Z,101439.63
2024-01-11T23:13:38.924Z,101447.23
2024-01-11T23:16:06.884Z,101445.05
2024-01-11T23:18:36.699Z,101444.49
2024-01-11T23:21:05.032Z,101451.27
2024-01-11T23:23:33.032Z,101456.10
2024-01-11T23:26:01.025Z,101457.48
2024-01-11T23:28:28.951Z,101453.80
2024-01-11T23:30:56.997Z,101465.37
2024-01-11T23:33:25.093Z,101454.06
2024-01-11T23:35:53.236Z,101457.55
2024-01-11T23:38:21.157Z,101457.94
2024-01-11T23:40:49.117Z,101460.39
2024-01-11T23:43:18.048Z,101461.11
2024-01-11T23:45:46.966Z,101456.65
2024-01-11T23:48:15.025Z,101454.73
2024-01-11T23:50:43.398Z,101454.55
2024-01-11T23:53:11.411Z,101451.46
2024-01-11T23:55:39.802Z,101449.52
2024-01-11T23:58:07.813Z,101441.38
